Saginaw Browne, MI

1:34 AM EST on January 24, 2018 (GMT -0500)
Saginaw County-Browne

Weather History for KHYX - September, 2012

Change the Weather History Date:

Wednesday, September 12, 2012

  Actual Average (KMBS) Record (KMBS)
Temperature  
Mean Temperature 70 °F -  
Max Temperature 82 °F 74 °F 91 °F (2005)
Min Temperature 59 °F 50 °F 46 °F (1999)
Cooling Degree Days 6    
Growing Degree Days 20 (Base 50)    
Moisture  
Dew Point 54 °F    
Average Humidity 59    
Maximum Humidity 77    
Minimum Humidity 35    
Precipitation  
Precipitation 0.00 in - - ()
Sea Level Pressure  
Sea Level Pressure 30.15 in    
Wind  
Wind Speed 9 mph (SSW)    
Max Wind Speed 16 mph    
Max Gust Speed 22 mph    
Visibility 10 miles    
Events      
Averages and records for this station are not official NWS values.
T = Trace of Precipitation, MM = Missing Value Source: NWS Daily Summary

Daily Weather History Graph

Daily Weather History Graph

Search for Another Location

Airport or City:

Trip Planner

Search our weather history database for the weather conditions in past years. The results will help you decide how hot, cold, wet, or windy it might be!

Date:

Astronomy

Sep. 12, 2012 Rise Set
Actual Time 7:12 AM EDT 7:50 PM EDT
Civil Twilight 6:43 AM EDT 8:18 PM EDT
Nautical Twilight 6:09 AM EDT 8:52 PM EDT
Astronomical Twilight 5:33 AM EDT 9:28 PM EDT
Moon 3:22 AM EDT (9/12) 5:41 PM EDT (9/12)
Length of Visible Light 13h 35m
Length of Day
12h 38m
Waning Crescent, 14% of the Moon is Illuminated
Sep 12
Waning Crescent
Sep 15
New
Sep 22
First Quarter
Sep 29
Full
Oct 8
Last Quarter

Hourly Weather History & Observations

Time (EDT) Temp. Heat Index Dew Point Humidity Pressure Visibility Wind Dir Wind Speed Gust Speed Precip Events Conditions
12:32 AM 60.8 °F - 53.6 °F 77% 30.13 in 10.0 mi South 8.1 mph - N/A   Clear
12:52 AM 62.6 °F - 53.6 °F 72% 30.13 in 10.0 mi South 6.9 mph - N/A   Clear
1:12 AM 62.6 °F - 53.6 °F 72% 30.13 in 10.0 mi South 6.9 mph - N/A   Clear
1:32 AM 62.6 °F - 53.6 °F 72% 30.13 in 10.0 mi South 6.9 mph - N/A   Clear
1:52 AM 62.6 °F - 53.6 °F 72% 30.13 in 10.0 mi South 6.9 mph - N/A   Clear
2:12 AM 62.6 °F - 53.6 °F 72% 30.13 in 10.0 mi SSW 8.1 mph - N/A   Clear
2:32 AM 64.4 °F - 51.8 °F 64% 30.13 in 10.0 mi SSW 10.4 mph - N/A   Clear
2:53 AM 64.4 °F - 51.8 °F 64% 30.13 in 10.0 mi SSW 9.2 mph - N/A   Clear
3:13 AM 62.6 °F - 51.8 °F 68% 30.13 in 10.0 mi SSW 9.2 mph - N/A   Clear
3:33 AM 62.6 °F - 51.8 °F 68% 30.14 in 10.0 mi SSW 9.2 mph - N/A   Clear
3:53 AM 62.6 °F - 51.8 °F 68% 30.14 in 10.0 mi SSW 10.4 mph - N/A   Clear
4:13 AM 62.6 °F - 51.8 °F 68% 30.14 in 10.0 mi SSW 10.4 mph - N/A   Clear
4:33 AM 62.6 °F - 51.8 °F 68% 30.14 in 10.0 mi SSW 8.1 mph - N/A   Clear
4:53 AM 62.6 °F - 51.8 °F 68% 30.14 in 10.0 mi SSW 9.2 mph - N/A   Clear
5:13 AM 60.8 °F - 51.8 °F 72% 30.15 in 10.0 mi SSW 9.2 mph - N/A   Clear
5:33 AM 59.0 °F - 51.8 °F 77% 30.15 in 10.0 mi South 5.8 mph - N/A   Clear
5:53 AM 59.0 °F - 51.8 °F 77% 30.16 in 10.0 mi South 6.9 mph - N/A   Clear
6:14 AM 59.0 °F - 51.8 °F 77% 30.16 in 10.0 mi South 6.9 mph - N/A   Clear
6:34 AM 59.0 °F - 51.8 °F 77% 30.16 in 10.0 mi South 8.1 mph - N/A   Clear
6:54 AM 59.0 °F - 51.8 °F 77% 30.17 in 10.0 mi South 8.1 mph - N/A   Clear
7:14 AM 59.0 °F - 51.8 °F 77% 30.17 in 10.0 mi South 6.9 mph - N/A   Clear
7:34 AM 59.0 °F - 51.8 °F 77% 30.17 in 10.0 mi South 6.9 mph - N/A   Clear
7:54 AM 60.8 °F - 51.8 °F 72% 30.17 in 10.0 mi South 6.9 mph - N/A   Clear
8:14 AM 62.6 °F - 51.8 °F 68% 30.17 in 10.0 mi South 8.1 mph - N/A   Clear
8:34 AM 64.4 °F - 53.6 °F 68% 30.17 in 10.0 mi South 10.4 mph - N/A   Clear
8:54 AM 64.4 °F - 53.6 °F 68% 30.17 in 10.0 mi SSW 12.7 mph 17.3 mph N/A   Clear
9:09 AM 66.2 °F - 53.6 °F 64% 30.17 in 10.0 mi SSW 12.7 mph 16.1 mph N/A   Clear
9:30 AM 68.0 °F - 53.6 °F 60% 30.17 in 10.0 mi SSW 13.8 mph - N/A   Clear
9:50 AM 68.0 °F - 53.6 °F 60% 30.17 in 10.0 mi SSW 13.8 mph 19.6 mph N/A   Clear
10:10 AM 69.8 °F - 53.6 °F 56% 30.17 in 10.0 mi SSW 13.8 mph 18.4 mph N/A   Clear
10:30 AM 69.8 °F - 55.4 °F 60% 30.18 in 10.0 mi SW 12.7 mph - N/A   Clear
10:50 AM 71.6 °F - 55.4 °F 57% 30.18 in 10.0 mi SW 12.7 mph - N/A   Clear
11:10 AM 73.4 °F - 55.4 °F 53% 30.17 in 10.0 mi WSW 12.7 mph 17.3 mph N/A   Clear
11:30 AM 75.2 °F - 57.2 °F 53% 30.17 in 10.0 mi SSW 10.4 mph - N/A   Clear
11:50 AM 75.2 °F - 57.2 °F 53% 30.17 in 10.0 mi SW 13.8 mph 18.4 mph N/A   Clear
12:10 PM 77.0 °F - 57.2 °F 50% 30.16 in 10.0 mi SSW 16.1 mph - N/A   Clear
12:31 PM 78.8 °F - 59.0 °F 51% 30.16 in 10.0 mi SSW 16.1 mph 20.7 mph N/A   Clear
12:51 PM 78.8 °F - 59.0 °F 51% 30.15 in 10.0 mi SSW 16.1 mph 21.9 mph N/A   Clear
1:11 PM 80.6 °F 81.1 °F 59.0 °F 48% 30.15 in 10.0 mi SW 15.0 mph 20.7 mph N/A   Clear
1:31 PM 80.6 °F 80.8 °F 57.2 °F 45% 30.15 in 10.0 mi SSW 13.8 mph - N/A   Clear
1:51 PM 80.6 °F 81.1 °F 59.0 °F 48% 30.15 in 10.0 mi WSW 12.7 mph - N/A   Clear
2:11 PM 80.6 °F 80.8 °F 57.2 °F 45% 30.15 in 10.0 mi SW 11.5 mph 19.6 mph N/A   Clear
2:31 PM 80.6 °F 80.5 °F 55.4 °F 42% 30.14 in 10.0 mi SW 13.8 mph 20.7 mph N/A   Clear
2:51 PM 82.4 °F 81.7 °F 55.4 °F 39% 30.14 in 10.0 mi SW 13.8 mph - N/A   Clear
3:12 PM 82.4 °F 82.0 °F 57.2 °F 42% 30.14 in 10.0 mi SSW 10.4 mph - N/A   Clear
3:32 PM 82.4 °F 81.7 °F 55.4 °F 39% 30.13 in 10.0 mi SW 10.4 mph - N/A   Clear
3:52 PM 82.4 °F 81.4 °F 53.6 °F 37% 30.13 in 10.0 mi SW 10.4 mph - N/A   Clear
4:12 PM 82.4 °F 81.4 °F 53.6 °F 37% 30.12 in 10.0 mi SSW 13.8 mph 18.4 mph N/A   Clear
4:32 PM 82.4 °F 81.4 °F 53.6 °F 37% 30.11 in 10.0 mi SW 11.5 mph 18.4 mph N/A   Clear
4:52 PM 82.4 °F 81.4 °F 53.6 °F 37% 30.11 in 10.0 mi SW 11.5 mph 20.7 mph N/A   Clear
5:12 PM 82.4 °F 81.4 °F 53.6 °F 37% 30.11 in 10.0 mi SSW 10.4 mph - N/A   Clear
5:53 PM 82.4 °F - 51.8 °F 35% 30.11 in 10.0 mi SSW 10.4 mph 18.4 mph N/A   Clear
6:13 PM 82.4 °F 81.4 °F 53.6 °F 37% 30.11 in 10.0 mi South 13.8 mph - N/A   Clear
6:33 PM 80.6 °F 80.3 °F 53.6 °F 39% 30.11 in 10.0 mi South 10.4 mph - N/A   Clear
6:53 PM 80.6 °F 80.3 °F 53.6 °F 39% 30.11 in 10.0 mi South 10.4 mph - N/A   Clear
7:13 PM 78.8 °F - 53.6 °F 42% 30.11 in 10.0 mi South 8.1 mph - N/A   Clear
7:33 PM 75.2 °F - 55.4 °F 50% 30.12 in 10.0 mi South 6.9 mph - N/A   Clear
7:53 PM 73.4 °F - 55.4 °F 53% 30.13 in 10.0 mi South 5.8 mph - N/A   Clear
8:33 PM 68.0 °F - 55.4 °F 64% 30.14 in 10.0 mi South 6.9 mph - N/A   Clear
8:53 PM 69.8 °F - 55.4 °F 60% 30.15 in 10.0 mi SSW 6.9 mph - N/A   Clear
9:14 PM 69.8 °F - 55.4 °F 60% 30.16 in 10.0 mi SSW 5.8 mph - N/A   Clear
9:34 PM 71.6 °F - 55.4 °F 57% 30.16 in 10.0 mi SSW 8.1 mph - N/A   Clear
9:54 PM 69.8 °F - 55.4 °F 60% 30.16 in 10.0 mi South 6.9 mph - N/A   Clear
10:14 PM 68.0 °F - 55.4 °F 64% 30.16 in 10.0 mi South 6.9 mph - N/A   Clear
10:34 PM 66.2 °F - 55.4 °F 68% 30.16 in 10.0 mi South 5.8 mph - N/A   Clear
10:54 PM 68.0 °F - 55.4 °F 64% 30.17 in 10.0 mi South 6.9 mph - N/A   Clear
11:14 PM 66.2 °F - 55.4 °F 68% 30.17 in 10.0 mi South 5.8 mph - N/A   Clear
11:34 PM 64.4 °F - 55.4 °F 73% 30.17 in 10.0 mi South 5.8 mph - N/A   Clear
11:54 PM 64.4 °F - 55.4 °F 73% 30.17 in 10.0 mi South 5.8 mph - N/A   Clear